Time;durP1;ratioP1;P1;durP2;ratioP2;P2;SDS_P1;SDS_P2;PMS_P1;PMS_P2;Temp;Humidity;BMP_temperature;BMP_pressure;BME280_temperature;BME280_humidity;BME280_pressure;Samples;Min_cycle;Max_cycle;Signal;HPM_P1;HPM_P2
2023/11/02 00:01:00;;;;;;;4.00;3.10;;;;;;;13.08;100.00;99050.96;105895;1252;71437;-66
2023/11/02 00:03:30;;;;;;;3.70;3.40;;;;;;;13.11;100.00;99055.70;104581;1259;61452;-65
2023/11/02 00:05:58;;;;;;;4.30;3.80;;;;;;;13.12;100.00;99059.71;104752;1251;59779;-63
2023/11/02 00:08:31;;;;;;;3.90;2.90;;;;;;;13.07;100.00;99056.66;105007;1256;71740;-64
2023/11/02 00:11:03;;;;;;;3.40;3.00;;;;;;;13.04;100.00;99053.28;104535;1265;70056;-63
2023/11/02 00:13:30;;;;;;;4.10;3.60;;;;;;;13.10;100.00;99050.47;104528;1254;71498;-65
2023/11/02 00:15:59;;;;;;;3.10;2.90;;;;;;;13.14;100.00;99051.65;104428;1256;62445;-63
2023/11/02 00:18:27;;;;;;;3.10;2.80;;;;;;;13.13;100.00;99051.02;104451;1257;59639;-65
2023/11/02 00:20:54;;;;;;;;;;;;;;;13.12;100.00;99054.27;108663;1251;72746;-65
2023/11/02 00:23:39;;;;;;;3.10;2.80;;;;;;;13.09;100.00;99054.23;108646;1251;69772;-64
2023/11/02 00:26:07;;;;;;;8.90;2.70;;;;;;;13.07;100.00;99054.91;108406;1254;72798;-64
2023/11/02 00:28:37;;;;;;;4.20;2.90;;;;;;;13.06;100.00;99053.89;108635;1254;62485;-65
2023/11/02 00:31:06;;;;;;;4.40;2.70;;;;;;;13.06;100.00;99052.33;108597;1253;59722;-65
2023/11/02 00:33:33;;;;;;;2.50;2.30;;;;;;;13.09;100.00;99051.45;108602;1251;74000;-65
2023/11/02 00:36:01;;;;;;;4.40;2.30;;;;;;;13.12;100.00;99051.05;108577;1251;69266;-65
2023/11/02 00:38:31;;;;;;;4.90;2.30;;;;;;;13.17;100.00;99053.89;108557;1251;72414;-65
2023/11/02 00:40:59;;;;;;;3.40;2.20;;;;;;;13.17;100.00;99053.05;108587;1252;61495;-65
2023/11/02 00:43:28;;;;;;;2.40;2.20;;;;;;;13.18;100.00;99054.38;108642;1251;59690;-64
2023/11/02 00:45:56;;;;;;;3.20;2.30;;;;;;;13.15;100.00;99057.53;108465;1251;72899;-65
2023/11/02 00:48:30;;;;;;;4.40;2.40;;;;;;;13.17;100.00;99057.75;108407;1256;68234;-63
2023/11/02 00:51:12;;;;;;;2.20;2.00;;;;;;;13.20;100.00;99060.96;108361;1251;71269;-65
2023/11/02 00:53:43;;;;;;;3.60;1.90;;;;;;;13.23;100.00;99058.95;108499;1251;62381;-64
2023/11/02 00:56:10;;;;;;;3.10;2.20;;;;;;;13.28;100.00;99060.82;108449;1250;59086;-65
2023/11/02 00:58:43;;;;;;;2.40;2.10;;;;;;;13.29;100.00;99058.27;108146;1250;73263;-65
2023/11/02 01:01:12;;;;;;;4.30;1.70;;;;;;;13.32;100.00;99058.30;108582;1250;69293;-65
2023/11/02 01:03:41;;;;;;;2.00;1.80;;;;;;;13.34;100.00;99057.30;108595;1251;73333;-65
2023/11/02 01:06:15;;;;;;;3.40;2.40;;;;;;;13.32;100.00;99058.67;108484;1250;61368;-64
2023/11/02 01:08:43;;;;;;;2.20;2.00;;;;;;;13.29;100.00;99062.52;108540;1251;58911;-65
2023/11/02 01:11:10;;;;;;;2.50;1.90;;;;;;;13.28;100.00;99058.67;108631;1251;73736;-65
2023/11/02 01:13:38;;;;;;;2.50;2.20;;;;;;;13.21;100.00;99055.80;108615;1251;69178;-65
2023/11/02 01:16:08;;;;;;;3.00;2.20;;;;;;;13.22;100.00;99058.73;108433;1251;72523;-65
2023/11/02 01:18:39;;;;;;;2.30;2.10;;;;;;;13.23;100.00;99054.92;108579;1254;61404;-65
2023/11/02 01:21:07;;;;;;;2.70;2.10;;;;;;;13.26;100.00;99055.30;108551;1250;60663;-63
2023/11/02 01:23:35;;;;;;;2.40;2.00;;;;;;;13.28;100.00;99059.41;108409;1257;73284;-65
2023/11/02 01:26:06;;;;;;;2.60;2.40;;;;;;;13.30;100.00;99055.07;108661;1251;69581;-65
2023/11/02 01:28:53;;;;;;;3.90;2.00;;;;;;;13.28;100.00;99051.66;108543;1251;73137;-65
2023/11/02 01:31:21;;;;;;;1.90;1.80;;;;;;;13.24;100.00;99057.85;108600;1252;61592;-64
2023/11/02 01:33:53;;;;;;;;;;;;;;;13.24;100.00;99061.39;108631;1251;59666;-64
2023/11/02 01:36:30;;;;;;;3.20;1.90;;;;;;;13.21;100.00;99063.18;108627;1255;72014;-64
2023/11/02 01:39:08;;;;;;;3.60;1.50;;;;;;;13.12;100.00;99063.25;108563;1251;69201;-64
2023/11/02 01:41:45;;;;;;;2.70;1.90;;;;;;;13.06;100.00;99068.31;108428;1252;72341;-65
2023/11/02 01:44:22;;;;;;;2.90;1.80;;;;;;;13.03;100.00;99068.16;108448;1253;61465;-64
2023/11/02 01:47:09;;;;;;;2.20;1.90;;;;;;;13.01;100.00;99069.14;108293;1251;60695;-64
2023/11/02 01:49:47;;;;;;;2.40;1.90;;;;;;;13.00;100.00;99070.95;108367;1251;73411;-64
2023/11/02 01:52:21;;;;;;;1.70;1.60;;;;;;;12.95;100.00;99073.06;108455;1251;70041;-64
2023/11/02 01:55:06;;;;;;;2.90;1.80;;;;;;;12.88;100.00;99072.13;108554;1252;72896;-64
2023/11/02 01:58:00;;;;;;;3.40;1.70;;;;;;;12.83;100.00;99073.98;108315;1251;61451;-62
2023/11/02 02:00:48;;;;;;;1.70;1.60;;;;;;;12.83;100.00;99075.54;108296;1252;59826;-64
2023/11/02 02:03:26;;;;;;;1.60;1.50;;;;;;;12.84;100.00;99078.63;108035;1251;73330;-64
2023/11/02 02:06:35;;;;;;;2.60;2.00;;;;;;;12.82;100.00;99078.63;108322;1250;69234;-64
2023/11/02 02:09:35;;;;;;;2.70;1.70;;;;;;;12.74;100.00;99084.39;108272;1253;72342;-64
2023/11/02 02:12:13;;;;;;;5.00;2.10;;;;;;;12.64;100.00;99086.55;108253;1255;62264;-62
2023/11/02 02:14:59;;;;;;;1.50;1.40;;;;;;;12.62;100.00;99088.58;108641;1250;59780;-63
2023/11/02 02:17:47;;;;;;;2.70;1.60;;;;;;;12.58;100.00;99085.30;108524;1251;72491;-64
2023/11/02 02:20:27;;;;;;;1.90;1.80;;;;;;;12.54;100.00;99089.11;108409;1250;68381;-63
2023/11/02 02:23:48;;;;;;;1.40;1.30;;;;;;;12.52;100.00;99091.33;108393;1254;73288;-63
2023/11/02 02:27:03;;;;;;;1.80;1.70;;;;;;;12.53;100.00;99089.51;107390;1259;62824;-65
2023/11/02 02:30:07;;;;;;;1.80;1.30;;;;;;;12.58;100.00;99091.83;108247;1251;60103;-64
2023/11/02 02:32:50;;;;;;;2.50;1.90;;;;;;;12.57;100.00;99090.48;108577;1251;72895;-64
2023/11/02 02:35:20;;;;;;;3.40;1.60;;;;;;;12.53;100.00;99092.66;108632;1251;69140;-64
2023/11/02 02:38:04;;;;;;;2.40;1.80;;;;;;;12.49;100.00;99095.35;108593;1251;72354;-64
2023/11/02 02:40:33;;;;;;;3.40;1.70;;;;;;;12.48;100.00;99092.79;108567;1251;61756;-68
2023/11/02 02:43:02;;;;;;;2.40;1.40;;;;;;;12.43;100.00;99095.66;108635;1251;59808;-65
2023/11/02 02:45:29;;;;;;;1.60;1.30;;;;;;;12.40;100.00;99100.98;108204;1251;73637;-66
2023/11/02 02:47:58;;;;;;;1.60;1.50;;;;;;;12.38;100.00;99106.73;108585;1256;70032;-65
2023/11/02 02:50:30;;;;;;;1.50;1.40;;;;;;;12.30;100.00;99110.34;107960;1252;72506;-65
2023/11/02 02:53:00;;;;;;;3.40;1.70;;;;;;;12.25;100.00;99112.41;108431;1254;61435;-66
2023/11/02 02:55:28;;;;;;;2.00;1.80;;;;;;;12.22;100.00;99111.70;108537;1253;59763;-66
2023/11/02 02:57:57;;;;;;;2.20;2.00;;;;;;;12.17;100.00;99111.80;108581;1251;73529;-65
2023/11/02 03:00:29;;;;;;;3.70;1.40;;;;;;;12.10;100.00;99113.42;108615;1254;70460;-65
2023/11/02 03:02:57;;;;;;;3.50;1.90;;;;;;;12.05;100.00;99119.52;108536;1254;72360;-65
2023/11/02 03:05:26;;;;;;;1.50;1.40;;;;;;;11.97;100.00;99123.30;108545;1251;61577;-65
2023/11/02 03:07:54;;;;;;;3.80;1.50;;;;;;;11.87;100.00;99124.38;108538;1251;60698;-66
2023/11/02 03:10:21;;;;;;;2.20;1.80;;;;;;;11.74;100.00;99128.98;108635;1254;73677;-65
2023/11/02 03:12:49;;;;;;;2.10;1.70;;;;;;;11.69;100.00;99128.02;108520;1256;69592;-65
2023/11/02 03:15:17;;;;;;;3.70;1.70;;;;;;;11.62;100.00;99128.75;108530;1251;73018;-65
2023/11/02 03:18:11;;;;;;;1.70;1.60;;;;;;;11.54;100.00;99129.18;108473;1253;62310;-65
2023/11/02 03:20:43;;;;;;;3.20;1.60;;;;;;;11.46;100.00;99130.13;108622;1251;58683;-65
2023/11/02 03:23:10;;;;;;;1.60;1.40;;;;;;;11.42;100.00;99137.58;108479;1251;74566;-65
2023/11/02 03:25:38;;;;;;;2.50;1.80;;;;;;;11.40;100.00;99143.64;108591;1256;68009;-65
2023/11/02 03:28:18;;;;;;;2.40;1.50;;;;;;;11.37;100.00;99140.97;108432;1254;72937;-65
2023/11/02 03:30:52;;;;;;;2.80;1.40;;;;;;;11.37;100.00;99140.95;108613;1251;60049;-65
2023/11/02 03:34:11;;;;;;;2.80;2.00;;;;;;;11.41;100.00;99139.36;108437;1251;59869;-65
2023/11/02 03:37:01;;;;;;;2.30;1.80;;;;;;;11.40;100.00;99140.15;108173;1251;74092;-65
2023/11/02 03:39:32;;;;;;;1.80;1.70;;;;;;;11.38;100.00;99142.01;108583;1253;68208;-65
2023/11/02 03:42:16;;;;;;;3.00;1.70;;;;;;;11.36;100.00;99146.69;108619;1251;71282;-66
2023/11/02 03:45:12;;;;;;;1.80;1.70;;;;;;;11.37;100.00;99139.95;108626;1253;60594;-65
2023/11/02 03:48:18;;;;;;;1.80;1.70;;;;;;;11.37;100.00;99137.63;108625;1251;59749;-65
2023/11/02 03:51:16;;;;;;;2.30;1.80;;;;;;;11.37;100.00;99140.98;107899;1257;73610;-65
2023/11/02 03:53:55;;;;;;;1.60;1.40;;;;;;;11.37;100.00;99146.64;107871;1257;70165;-65
2023/11/02 03:56:35;;;;;;;2.00;1.70;;;;;;;11.30;100.00;99142.77;108312;1256;72819;-65
2023/11/02 03:59:23;;;;;;;2.10;1.70;;;;;;;11.25;100.00;99142.15;108303;1251;61579;-64
2023/11/02 04:02:01;;;;;;;1.90;1.80;;;;;;;11.23;100.00;99143.45;108414;1256;59696;-65
2023/11/02 04:04:40;;;;;;;3.00;1.80;;;;;;;11.26;100.00;99145.95;108279;1255;73678;-65
2023/11/02 04:07:15;;;;;;;2.40;1.70;;;;;;;11.28;100.00;99145.46;108418;1253;69356;-64
2023/11/02 04:09:49;;;;;;;6.30;1.90;;;;;;;11.30;100.00;99146.06;108424;1253;73060;-65
2023/11/02 04:12:41;;;;;;;2.20;1.40;;;;;;;11.38;100.00;99145.64;108498;1253;60572;-65
2023/11/02 04:15:09;;;;;;;2.40;1.70;;;;;;;11.44;100.00;99139.70;108572;1251;59720;-66
2023/11/02 04:17:37;;;;;;;;;;;;;;;11.44;100.00;99137.96;108659;1251;73241;-65
2023/11/02 04:20:08;;;;;;;2.10;2.00;;;;;;;11.40;100.00;99138.38;108550;1251;69024;-65
2023/11/02 04:22:38;;;;;;;2.40;1.80;;;;;;;11.36;100.00;99138.77;108559;1251;71418;-65
2023/11/02 04:25:06;;;;;;;2.20;1.90;;;;;;;11.38;100.00;99136.36;108416;1251;60697;-64
2023/11/02 04:27:34;;;;;;;2.00;1.80;;;;;;;11.39;100.00;99137.55;108670;1252;60685;-65
2023/11/02 04:30:02;;;;;;;1.70;1.60;;;;;;;11.37;100.00;99143.77;108581;1251;72666;-65
2023/11/02 04:32:30;;;;;;;;;;;;;;;11.34;100.00;99147.32;108558;1251;69210;-65
2023/11/02 04:34:58;;;;;;;1.90;1.60;;;;;;;11.25;100.00;99144.97;108310;1253;73018;-65
2023/11/02 04:37:26;;;;;;;4.20;2.10;;;;;;;11.18;100.00;99147.77;108533;1251;61128;-64
2023/11/02 04:39:54;;;;;;;2.10;1.90;;;;;;;11.17;100.00;99150.11;108629;1254;60121;-65
2023/11/02 04:42:22;;;;;;;2.10;1.90;;;;;;;11.14;100.00;99149.60;108551;1251;73751;-65
2023/11/02 04:44:51;;;;;;;2.80;2.00;;;;;;;11.09;100.00;99152.79;108573;1251;68554;-66
2023/11/02 04:47:19;;;;;;;2.20;2.00;;;;;;;11.08;100.00;99153.59;108583;1251;73159;-65
2023/11/02 04:49:47;;;;;;;2.00;1.80;;;;;;;11.05;100.00;99154.45;108653;1252;60677;-66
2023/11/02 04:52:14;;;;;;;1.80;1.70;;;;;;;11.03;100.00;99159.08;108467;1254;59763;-65
2023/11/02 04:54:43;;;;;;;2.30;2.00;;;;;;;11.04;100.00;99162.75;108365;1253;73784;-64
2023/11/02 04:57:10;;;;;;;3.40;2.10;;;;;;;11.06;100.00;99167.17;108551;1251;69074;-65
2023/11/02 04:59:42;;;;;;;3.50;2.10;;;;;;;11.10;100.00;99164.72;108441;1254;72606;-66
2023/11/02 05:02:10;;;;;;;2.10;2.00;;;;;;;11.10;100.00;99170.50;108377;1251;60737;-64
2023/11/02 05:04:38;;;;;;;2.20;2.00;;;;;;;11.09;100.00;99171.05;108504;1254;59665;-69
2023/11/02 05:07:06;;;;;;;;;;;;;;;11.12;100.00;99172.48;108455;1254;73655;-68
2023/11/02 05:09:34;;;;;;;4.00;1.80;;;;;;;11.10;100.00;99172.39;108368;1251;69213;-67
2023/11/02 05:12:01;;;;;;;7.70;2.40;;;;;;;11.12;100.00;99173.16;108520;1251;73153;-68
2023/11/02 05:14:29;;;;;;;2.30;2.00;;;;;;;11.11;100.00;99179.21;108440;1254;59923;-67
2023/11/02 05:16:57;;;;;;;2.70;1.90;;;;;;;11.11;100.00;99179.02;108647;1251;59696;-67
2023/11/02 05:19:24;;;;;;;4.40;2.40;;;;;;;11.10;100.00;99177.86;108489;1251;72691;-65
2023/11/02 05:21:52;;;;;;;;;;;;;;;11.06;100.00;99181.72;108520;1251;69201;-67
2023/11/02 05:24:20;;;;;;;;;;;;;;;11.03;100.00;99185.95;108476;1254;73342;-64
2023/11/02 05:26:47;;;;;;;;;;;;;;;10.97;100.00;99191.32;108659;1251;60648;-64
2023/11/02 05:29:15;;;;;;;;;;;;;;;10.95;100.00;99197.07;108593;1251;60519;-65
2023/11/02 05:31:43;;;;;;;2.30;2.10;;;;;;;10.93;100.00;99201.73;108501;1251;73694;-66
2023/11/02 05:34:10;;;;;;;2.50;2.00;;;;;;;10.89;100.00;99206.27;108489;1253;69364;-65
2023/11/02 05:36:38;;;;;;;;;;;;;;;10.83;100.00;99214.15;108541;1252;72484;-64
2023/11/02 05:39:06;;;;;;;2.10;2.00;;;;;;;10.77;100.00;99219.86;108543;1251;60701;-64
2023/11/02 05:41:34;;;;;;;2.30;2.10;;;;;;;10.68;100.00;99218.36;108554;1251;59669;-65
2023/11/02 05:47:01;;;;;;;2.70;2.40;;;;;;;10.65;100.00;99223.96;101503;1290;601778;-66
2023/11/02 05:49:28;;;;;;;;;;;;;;;10.64;100.00;99227.20;103633;1270;60590;-66
2023/11/02 05:51:58;;;;;;;2.70;2.40;;;;;;;10.68;100.00;99231.90;103728;1273;59500;-65
2023/11/02 05:54:26;;;;;;;2.30;2.10;;;;;;;10.71;100.00;99233.33;103903;1264;72078;-65
2023/11/02 05:56:54;;;;;;;3.90;2.70;;;;;;;10.77;100.00;99234.43;103685;1280;69421;-66
2023/11/02 05:59:22;;;;;;;3.40;3.10;;;;;;;10.82;100.00;99240.83;103664;1282;72353;-65
2023/11/02 06:01:49;;;;;;;;;;;;;;;10.84;100.00;99241.09;104120;1260;253137;-65
2023/11/02 06:04:17;;;;;;;2.90;2.60;;;;;;;10.87;100.00;99242.50;106553;1257;60538;-66
2023/11/02 06:06:45;;;;;;;4.60;3.60;;;;;;;10.88;100.00;99241.02;104605;1254;70883;-66
2023/11/02 06:09:13;;;;;;;6.10;4.10;;;;;;;10.88;100.00;99238.41;104548;1260;69567;-66
2023/11/02 06:11:41;;;;;;;5.30;4.10;;;;;;;10.91;100.00;99237.74;104800;1257;73367;-65
2023/11/02 06:14:08;;;;;;;4.30;3.90;;;;;;;10.88;100.00;99238.39;104453;1257;61606;-65
2023/11/02 06:16:36;;;;;;;5.00;4.30;;;;;;;10.89;100.00;99240.65;104719;1262;59835;-65
2023/11/02 06:19:04;;;;;;;5.00;4.10;;;;;;;10.96;100.00;99241.91;104345;1254;73369;-64
2023/11/02 06:21:33;;;;;;;4.60;4.20;;;;;;;11.00;100.00;99239.05;104666;1254;69738;-66
2023/11/02 06:24:00;;;;;;;4.90;3.90;;;;;;;11.06;100.00;99244.20;104330;1257;72820;-66
2023/11/02 06:26:28;;;;;;;4.40;3.90;;;;;;;11.13;100.00;99248.70;104356;1254;60572;-67
2023/11/02 06:28:56;;;;;;;6.50;3.50;;;;;;;11.20;100.00;99249.10;104142;1260;59929;-67
2023/11/02 06:31:24;;;;;;;4.20;3.80;;;;;;;11.26;100.00;99246.12;104615;1260;72999;-66
2023/11/02 06:33:52;;;;;;;;;;;;;;;11.32;100.00;99250.05;104689;1266;70271;-66
2023/11/02 06:36:20;;;;;;;;;;;;;;;11.38;100.00;99248.15;105243;1251;72439;-65
2023/11/02 06:38:47;;;;;;;3.20;2.80;;;;;;;11.46;100.00;99246.31;105117;1253;61271;-65
2023/11/02 06:41:15;;;;;;;3.30;3.00;;;;;;;11.54;100.00;99247.15;105348;1251;59763;-66
2023/11/02 06:43:43;;;;;;;3.30;3.00;;;;;;;11.60;100.00;99239.63;104831;1251;72883;-66
2023/11/02 06:46:10;;;;;;;3.90;3.30;;;;;;;11.67;100.00;99241.48;104387;1257;70196;-65
2023/11/02 06:48:39;;;;;;;3.80;3.30;;;;;;;11.72;100.00;99245.17;105112;1254;71574;-66
2023/11/02 06:51:07;;;;;;;;;;;;;;;11.76;100.00;99246.69;104498;1254;60664;-65
2023/11/02 06:53:35;;;;;;;3.20;2.90;;;;;;;11.79;100.00;99247.70;104631;1251;59755;-66
2023/11/02 06:56:03;;;;;;;;;;;;;;;11.83;100.00;99249.77;106468;1251;72861;-66
2023/11/02 06:58:31;;;;;;;;;;;;;;;11.90;100.00;99248.04;105316;1254;70044;-67
2023/11/02 07:01:00;;;;;;;3.80;3.10;;;;;;;11.91;100.00;99253.08;104741;1260;72481;-68
2023/11/02 07:03:28;;;;;;;3.40;3.10;;;;;;;11.93;100.00;99253.52;104438;1252;60543;-67
2023/11/02 07:05:55;;;;;;;;;;;;;;;11.97;100.00;99251.38;104744;1253;59772;-66
2023/11/02 07:08:23;;;;;;;3.70;2.80;;;;;;;12.02;100.00;99254.08;104379;1270;72830;-66
2023/11/02 07:10:51;;;;;;;;;;;;;;;12.03;100.00;99255.74;104807;1256;69090;-68
2023/11/02 07:13:19;;;;;;;2.90;2.60;;;;;;;12.07;100.00;99255.34;104667;1251;72684;-65
2023/11/02 07:15:47;;;;;;;;;;;;;;;12.17;100.00;99256.20;104656;1254;60636;-65
2023/11/02 07:18:15;;;;;;;2.60;2.40;;;;;;;12.26;100.00;99254.64;105135;1251;59713;-66
2023/11/02 07:20:42;;;;;;;3.10;2.90;;;;;;;12.33;100.00;99255.36;104794;1250;72760;-65
2023/11/02 07:23:10;;;;;;;3.40;2.60;;;;;;;12.38;100.00;99253.45;104853;1251;69352;-66
2023/11/02 07:25:40;;;;;;;3.30;2.90;;;;;;;12.45;100.00;99247.60;104593;1253;72359;-67
2023/11/02 07:28:08;;;;;;;2.80;2.60;;;;;;;12.56;100.00;99254.24;105224;1254;61117;-66
2023/11/02 07:30:36;;;;;;;2.70;2.50;;;;;;;12.61;100.00;99252.90;104759;1253;60027;-66
2023/11/02 07:33:04;;;;;;;;;;;;;;;12.70;100.00;99251.28;104679;1260;72912;-66
2023/11/02 07:35:32;;;;;;;3.10;2.30;;;;;;;12.80;100.00;99251.27;104558;1254;70112;-67
2023/11/02 07:37:59;;;;;;;2.60;2.40;;;;;;;12.86;100.00;99250.54;104572;1254;72489;-66
2023/11/02 07:40:27;;;;;;;2.80;2.50;;;;;;;12.94;100.00;99250.23;105261;1254;61427;-67
2023/11/02 07:42:55;;;;;;;;;;;;;;;13.01;100.00;99247.54;104606;1251;59743;-66
2023/11/02 07:45:23;;;;;;;5.80;2.80;;;;;;;13.09;99.82;99244.65;104668;1257;73128;-66
2023/11/02 07:47:51;;;;;;;3.10;2.80;;;;;;;13.14;98.76;99247.30;105053;1252;69194;-65
2023/11/02 07:50:19;;;;;;;2.80;2.30;;;;;;;13.23;99.49;99246.45;104524;1256;74210;-66
2023/11/02 07:52:46;;;;;;;;;;;;;;;13.31;99.85;99247.55;104573;1256;61484;-67
2023/11/02 07:55:14;;;;;;;2.60;2.40;;;;;;;13.40;99.51;99252.16;108587;1251;59822;-69
2023/11/02 07:57:42;;;;;;;2.40;2.20;;;;;;;13.43;99.85;99252.98;108536;1250;73711;-69
2023/11/02 08:00:10;;;;;;;2.50;2.30;;;;;;;13.53;99.62;99250.63;108481;1251;70090;-68
2023/11/02 08:02:38;;;;;;;2.70;2.30;;;;;;;13.65;99.93;99251.48;108432;1251;72822;-68
2023/11/02 08:05:06;;;;;;;5.70;2.70;;;;;;;13.77;99.60;99249.88;108446;1251;61457;-68
2023/11/02 08:07:34;;;;;;;2.80;2.60;;;;;;;13.94;98.64;99251.46;108437;1250;59729;-67
2023/11/02 08:10:02;;;;;;;3.30;3.00;;;;;;;13.99;98.51;99251.80;108508;1251;72862;-68
2023/11/02 08:12:32;;;;;;;;;;;;;;;14.08;99.63;99252.73;108486;1251;68117;-68
2023/11/02 08:15:01;;;;;;;3.30;3.00;;;;;;;14.16;99.36;99251.27;108434;1251;72821;-69
2023/11/02 08:17:29;;;;;;;4.00;3.60;;;;;;;14.25;97.87;99244.22;108488;1251;60597;-69
2023/11/02 08:19:57;;;;;;;3.70;3.40;;;;;;;14.25;98.38;99250.36;108586;1251;59689;-68
2023/11/02 08:22:25;;;;;;;3.20;3.00;;;;;;;14.41;98.59;99250.56;108493;1251;73695;-69
2023/11/02 08:24:52;;;;;;;3.60;3.00;;;;;;;14.50;98.39;99252.82;108611;1256;69239;-69
2023/11/02 08:27:20;;;;;;;3.40;3.10;;;;;;;14.60;97.78;99258.73;108544;1250;71650;-68
2023/11/02 08:29:48;;;;;;;3.40;3.10;;;;;;;14.67;97.40;99253.38;108541;1250;60502;-68
2023/11/02 08:32:15;;;;;;;4.00;3.60;;;;;;;14.72;97.31;99254.77;108532;1251;61636;-68
2023/11/02 08:34:43;;;;;;;4.30;3.80;;;;;;;14.77;97.98;99256.73;108596;1250;72824;-68
2023/11/02 08:37:11;;;;;;;4.60;3.70;;;;;;;14.87;98.95;99259.23;108549;1251;69592;-68
2023/11/02 08:39:42;;;;;;;4.00;3.70;;;;;;;14.96;98.76;99261.14;108574;1251;72173;-68
2023/11/02 08:42:12;;;;;;;4.20;3.60;;;;;;;14.95;98.86;99266.28;108527;1251;61461;-69
2023/11/02 08:44:40;;;;;;;6.30;4.00;;;;;;;14.98;98.76;99267.34;108559;1251;60125;-68
2023/11/02 08:47:12;;;;;;;3.90;3.60;;;;;;;15.05;99.20;99267.79;108617;1251;73564;-68
2023/11/02 08:49:41;;;;;;;5.20;3.50;;;;;;;15.10;99.31;99270.61;108546;1251;69782;-68
2023/11/02 08:52:08;;;;;;;4.50;4.00;;;;;;;15.14;98.64;99273.16;108490;1251;72299;-68
2023/11/02 08:54:36;;;;;;;5.10;4.70;;;;;;;15.21;99.33;99273.60;108579;1250;62377;-68
2023/11/02 08:57:04;;;;;;;5.20;4.70;;;;;;;15.26;98.58;99263.33;108574;1250;59781;-68
2023/11/02 08:59:32;;;;;;;5.40;4.30;;;;;;;15.31;98.28;99261.41;108573;1251;71734;-69
2023/11/02 09:02:00;;;;;;;7.50;4.20;;;;;;;15.35;98.37;99254.42;108590;1251;69255;-69
2023/11/02 09:04:28;;;;;;;3.30;3.00;;;;;;;15.40;96.94;99252.64;108542;1252;71378;-68
2023/11/02 09:06:56;;;;;;;6.30;3.60;;;;;;;15.43;96.60;99248.23;108452;1253;61415;-70
2023/11/02 09:09:24;;;;;;;4.60;3.90;;;;;;;15.50;97.01;99243.67;108595;1250;60098;-68
2023/11/02 09:11:52;;;;;;;3.60;3.40;;;;;;;15.62;97.03;99243.41;108652;1250;71713;-66
2023/11/02 09:14:20;;;;;;;3.30;3.10;;;;;;;15.74;95.99;99240.05;108563;1250;68151;-67
2023/11/02 09:16:48;;;;;;;;;;;;;;;15.83;95.64;99238.09;108607;1251;73472;-67
2023/11/02 09:19:16;;;;;;;3.40;3.10;;;;;;;15.93;95.60;99237.14;108595;1251;61739;-68
2023/11/02 09:21:44;;;;;;;3.60;3.30;;;;;;;16.02;94.91;99230.34;108647;1250;58857;-67
2023/11/02 09:24:11;;;;;;;3.10;2.60;;;;;;;16.11;95.21;99225.06;108583;1254;73117;-69
2023/11/02 09:26:41;;;;;;;3.70;3.40;;;;;;;16.23;93.13;99219.98;108316;1251;69229;-69
2023/11/02 09:29:08;;;;;;;5.20;2.80;;;;;;;16.30;91.54;99216.23;108562;1251;72493;-68
2023/11/02 09:31:36;;;;;;;8.90;3.50;;;;;;;16.38;92.09;99213.89;108506;1250;61679;-68
2023/11/02 09:34:09;;;;;;;3.10;2.80;;;;;;;16.50;90.85;99212.02;108595;1251;59744;-68
2023/11/02 09:36:37;;;;;;;4.90;3.80;;;;;;;16.61;89.37;99218.65;108585;1250;73600;-68
2023/11/02 09:39:07;;;;;;;3.10;2.80;;;;;;;16.62;86.17;99212.71;108635;1251;69781;-68
2023/11/02 09:41:35;;;;;;;3.20;2.90;;;;;;;16.64;85.12;99213.62;108599;1250;71837;-68
2023/11/02 09:44:05;;;;;;;2.80;2.60;;;;;;;16.58;82.90;99203.94;108607;1250;60749;-69
2023/11/02 09:46:33;;;;;;;3.80;3.30;;;;;;;16.67;84.09;99205.20;108593;1251;59707;-68
2023/11/02 09:49:01;;;;;;;4.40;2.90;;;;;;;16.84;85.78;99204.52;108561;1251;73290;-69
2023/11/02 09:51:29;;;;;;;3.70;3.30;;;;;;;17.01;85.24;99202.33;108476;1251;70152;-69
2023/11/02 09:53:57;;;;;;;;;;;;;;;17.15;84.14;99200.73;108576;1251;73024;-69
2023/11/02 09:56:24;;;;;;;4.40;3.00;;;;;;;17.26;82.68;99198.98;108586;1251;61749;-68
2023/11/02 09:58:52;;;;;;;;;;;;;;;17.32;82.30;99198.02;108332;1251;59798;-69
2023/11/02 10:01:20;;;;;;;;;;;;;;;17.34;81.31;99196.30;108582;1249;73644;-68
2023/11/02 10:03:47;;;;;;;6.20;3.60;;;;;;;17.37;80.71;99200.63;108506;1251;71278;-68
2023/11/02 10:09:13;;;;;;;3.90;3.40;;;;;;;16.95;87.61;99192.12;104067;1290;602505;-69
2023/11/02 10:11:41;;;;;;;6.70;4.10;;;;;;;17.50;82.80;99190.23;106454;1268;61537;-70
2023/11/02 10:14:09;;;;;;;6.60;3.60;;;;;;;17.54;81.54;99188.88;106317;1269;62848;-70
2023/11/02 10:16:36;;;;;;;5.10;3.70;;;;;;;17.58;82.10;99188.39;107782;1256;72770;-71
2023/11/02 10:19:04;;;;;;;4.90;4.20;;;;;;;17.57;80.90;99181.92;105427;1260;70054;-69
2023/11/02 10:21:32;;;;;;;;;;;;;;;17.55;81.68;99182.58;104296;1264;72486;-70
2023/11/02 10:24:02;;;;;;;4.00;3.70;;;;;;;17.60;81.30;99179.91;104340;1254;223217;-70
2023/11/02 10:26:34;;;;;;;4.10;3.60;;;;;;;17.61;81.07;99180.70;104681;1253;59849;-70
2023/11/02 10:29:02;;;;;;;4.40;3.80;;;;;;;17.62;80.54;99183.83;104415;1258;72352;-70
2023/11/02 10:31:33;;;;;;;4.50;4.10;;;;;;;17.53;80.10;99180.10;104556;1258;69597;-70
2023/11/02 10:34:05;;;;;;;7.90;3.80;;;;;;;17.47;80.66;99184.07;104460;1254;72719;-70
2023/11/02 10:36:33;;;;;;;5.00;3.70;;;;;;;17.42;80.71;99189.06;104399;1256;60479;-70
2023/11/02 10:39:01;;;;;;;4.20;3.50;;;;;;;17.42;80.59;99185.69;104401;1253;60351;-69
2023/11/02 10:41:29;;;;;;;5.20;3.90;;;;;;;17.38;80.33;99180.34;104472;1256;71834;-70
2023/11/02 10:43:57;;;;;;;6.80;4.70;;;;;;;17.35;80.96;99181.86;104476;1253;69536;-70
2023/11/02 10:46:27;;;;;;;5.50;4.80;;;;;;;17.34;81.33;99182.41;104669;1253;72527;-70
2023/11/02 10:48:57;;;;;;;4.20;3.70;;;;;;;17.37;81.52;99177.95;104676;1259;61515;-70
2023/11/02 10:51:26;;;;;;;4.80;4.30;;;;;;;17.37;81.70;99177.47;104547;1254;60364;-70
2023/11/02 10:54:02;;;;;;;5.40;4.90;;;;;;;17.39;82.02;99179.03;104482;1253;73189;-70
2023/11/02 10:56:40;;;;;;;7.10;4.10;;;;;;;17.38;81.49;99175.98;104907;1258;69588;-71
2023/11/02 10:59:08;;;;;;;5.20;4.00;;;;;;;17.36;82.28;99174.55;104491;1255;72725;-70
2023/11/02 11:01:37;;;;;;;5.70;4.40;;;;;;;17.34;82.37;99170.23;104732;1259;60801;-69
2023/11/02 11:04:10;;;;;;;5.90;3.90;;;;;;;17.32;82.19;99167.17;106409;1253;60532;-70
2023/11/02 11:06:42;;;;;;;3.80;3.50;;;;;;;17.34;81.69;99164.93;107840;1253;73002;-71
2023/11/02 11:09:12;;;;;;;5.50;3.90;;;;;;;17.35;81.23;99163.08;105564;1255;68940;-70
2023/11/02 11:11:40;;;;;;;4.90;3.50;;;;;;;17.33;80.81;99155.98;104884;1256;73105;-70
2023/11/02 11:14:08;;;;;;;3.30;3.10;;;;;;;17.31;81.57;99153.41;105196;1254;61650;-69
2023/11/02 11:16:38;;;;;;;3.80;3.50;;;;;;;17.38;81.42;99155.07;104944;1258;60651;-70
2023/11/02 11:19:06;;;;;;;4.10;3.40;;;;;;;17.44;81.61;99154.35;104811;1253;72228;-69
2023/11/02 11:21:34;;;;;;;;;;;;;;;17.59;80.71;99151.44;104522;1257;69236;-70
2023/11/02 11:24:17;;;;;;;3.00;2.70;;;;;;;17.69;80.38;99153.46;104658;1263;71626;-68
2023/11/02 11:26:55;;;;;;;3.20;2.60;;;;;;;17.82;79.11;99149.45;104644;1258;61636;-69
2023/11/02 11:29:45;;;;;;;8.30;3.40;;;;;;;17.96;78.46;99152.55;104489;1257;59698;-67
2023/11/02 11:32:24;;;;;;;5.30;3.10;;;;;;;18.11;75.41;99151.55;104557;1257;71867;-68
2023/11/02 11:35:03;;;;;;;3.00;2.60;;;;;;;18.23;74.98;99144.85;104558;1259;69062;-68
2023/11/02 11:40:26;;;;;;;3.50;2.30;;;;;;;18.47;71.84;99147.85;105017;1255;61705;-69
2023/11/02 11:42:54;;;;;;;2.30;2.10;;;;;;;18.57;70.84;99152.32;104283;1253;59963;-68
2023/11/02 11:45:26;;;;;;;;;;;;;;;18.63;67.37;99152.76;104718;1259;76841;-68
2023/11/02 11:47:54;;;;;;;2.70;2.50;;;;;;;18.70;66.72;99146.06;104635;1262;69804;-68
2023/11/02 11:50:50;;;;;;;;;;;;;;;18.80;65.71;99148.68;104608;1258;72472;-68
2023/11/02 11:53:23;;;;;;;4.40;2.20;;;;;;;18.88;64.55;99148.00;104850;1258;61699;-67
2023/11/02 11:55:52;;;;;;;3.20;2.70;;;;;;;18.90;65.38;99146.41;104287;1275;59767;-69